KLEW/LEW METAR and TAF weather

Enter ICAO airport designator
Station Type Date Time Source
KLEW METAR 2019/06/16 11:56 UTC NOAA

KLEW 161156Z AUTO 00000KT 10SM CLR 21/14 A2985 RMK AO2 SLP121 70001 T02060144 10217 20178 51009


Station Type Date Time Source
KLEW Decoded METAR 2019/06/16 11:56 UTC NOAA

Auburn-Lewiston, ME, United States (KLEW) 44-03N 070-17W
Jun 16, 2019 - 07:56 AM EDT / 2019.06.16 1156 UTC
Wind: Calm:0
Visibility: 10 mile(s):0
Sky conditions: clear
Temperature: 69.1 F (20.6 C)
Dew Point: 57.9 F (14.4 C)
Relative Humidity: 67%
Pressure (altimeter): 29.85 in. Hg (1010 hPa)
Pressure tendency: 0.03 inches (0.9 hPa) higher than three hours ago
ob: KLEW 161156Z AUTO 00000KT 10SM CLR 21/14 A2985 RMK AO2 SLP121 70001 T02060144 10217 20178 51009
cycle: 12

Station Type Date Time Source
KLEW TAF UTC NOAA

Error!

Example: see airport list